Time;durP1;ratioP1;P1;durP2;ratioP2;P2;SDS_P1;SDS_P2;PMS_P1;PMS_P2;Temp;Humidity;BMP_temperature;BMP_pressure;BME280_temperature;BME280_humidity;BME280_pressure;Samples;Min_cycle;Max_cycle;Signal;HPM_P1;HPM_P2
2022/05/30 00:00:17;;;;;;;2.20;2.00;;;14.90;99.90;;;;;;5119155;28;20920;-89
2022/05/30 00:02:43;;;;;;;2.43;1.80;;;14.80;99.90;;;;;;5101104;28;20489;-89
2022/05/30 00:05:10;;;;;;;2.50;1.80;;;14.80;99.90;;;;;;5120577;28;20412;-89
2022/05/30 00:07:37;;;;;;;7.00;2.07;;;14.80;99.90;;;;;;5119319;28;20515;-89
2022/05/30 00:10:05;;;;;;;1.80;1.70;;;14.70;99.90;;;;;;5102791;28;20459;-89
2022/05/30 00:12:31;;;;;;;1.77;1.67;;;14.70;99.90;;;;;;5101105;28;20540;-93
2022/05/30 00:14:57;;;;;;;1.80;1.70;;;14.70;99.90;;;;;;5102082;28;20518;-92
2022/05/30 00:17:22;;;;;;;3.70;1.77;;;14.70;99.90;;;;;;5101822;28;20459;-94
2022/05/30 00:19:48;;;;;;;4.30;2.40;;;14.60;99.90;;;;;;5120526;28;20180;-92
2022/05/30 00:22:14;;;;;;;3.97;1.73;;;14.60;99.90;;;;;;5118982;28;20192;-90
2022/05/30 00:24:41;;;;;;;1.93;1.73;;;14.70;99.90;;;;;;5120397;28;20799;-95
2022/05/30 00:27:08;;;;;;;2.87;2.30;;;14.70;99.90;;;;;;5101780;28;20455;-89
2022/05/30 00:29:34;;;;;;;1.73;1.63;;;14.70;99.90;;;;;;5101689;28;20420;-90
2022/05/30 00:32:00;;;;;;;1.80;1.70;;;14.70;99.90;;;;;;5102017;28;20527;-89
2022/05/30 00:34:26;;;;;;;3.20;1.83;;;14.70;99.90;;;;;;5119378;28;20401;-91
2022/05/30 00:36:53;;;;;;;1.77;1.60;;;14.70;99.90;;;;;;5120118;28;20683;-95
2022/05/30 00:39:19;;;;;;;2.90;2.03;;;14.70;99.90;;;;;;5120179;28;20402;-89
2022/05/30 00:41:45;;;;;;;2.73;1.70;;;14.70;99.90;;;;;;5120577;28;20447;-95
2022/05/30 00:44:11;;;;;;;2.33;2.07;;;14.70;99.90;;;;;;5120321;28;20724;-90
2022/05/30 00:46:37;;;;;;;2.50;2.20;;;14.70;99.90;;;;;;5122074;28;20737;-94
2022/05/30 00:49:06;;;;;;;2.70;2.27;;;14.70;99.90;;;;;;5104146;28;20408;-91
2022/05/30 00:51:45;;;;;;;1.73;1.63;;;14.70;99.90;;;;;;5105789;28;20660;-89
2022/05/30 00:54:15;;;;;;;1.97;1.80;;;14.70;99.90;;;;;;5088248;28;20412;-94
2022/05/30 00:56:44;;;;;;;2.30;2.00;;;14.70;99.90;;;;;;5112521;28;20455;-90
2022/05/30 00:59:10;;;;;;;2.70;1.93;;;14.70;99.90;;;;;;5100239;28;20979;-94
2022/05/30 01:01:37;;;;;;;2.10;1.97;;;14.70;99.90;;;;;;5100531;28;20859;-89
2022/05/30 01:06:54;;;;;;;3.40;1.93;;;14.70;99.90;;;;;;5121041;28;20471;-89
2022/05/30 01:09:27;;;;;;;3.50;1.83;;;14.70;99.90;;;;;;5102796;28;20404;-89
2022/05/30 01:12:01;;;;;;;1.97;1.87;;;14.70;99.90;;;;;;5100853;28;20588;-94
2022/05/30 01:14:34;;;;;;;2.13;1.73;;;14.70;99.90;;;;;;5118338;28;20419;-89
2022/05/30 01:17:02;;;;;;;3.80;2.30;;;14.70;99.90;;;;;;5101122;28;20463;-94
2022/05/30 01:19:53;;;;;;;3.87;2.33;;;14.70;99.90;;;;;;5100701;28;20477;-89
2022/05/30 01:22:54;;;;;;;3.10;2.30;;;14.70;99.90;;;;;;5119401;28;20513;-94
2022/05/30 01:25:57;;;;;;;1.77;1.67;;;14.70;99.90;;;;;;5038401;28;20466;-89
2022/05/30 01:28:45;;;;;;;2.30;2.10;;;14.70;99.90;;;;;;5080873;28;20925;-94
2022/05/30 01:31:11;;;;;;;2.83;2.10;;;14.60;99.90;;;;;;5101436;28;20428;-89
2022/05/30 01:33:37;;;;;;;3.97;2.10;;;14.60;99.90;;;;;;5101764;28;20837;-89
2022/05/30 01:36:03;;;;;;;2.80;2.23;;;14.60;99.90;;;;;;5120574;28;20466;-92
2022/05/30 01:38:29;;;;;;;1.97;1.87;;;14.60;99.90;;;;;;5101946;28;20207;-94
2022/05/30 01:40:55;;;;;;;1.90;1.80;;;14.60;99.90;;;;;;5119806;28;20814;-92
2022/05/30 01:43:22;;;;;;;2.07;1.87;;;14.60;99.90;;;;;;5102269;28;20692;-94
2022/05/30 01:45:48;;;;;;;2.70;2.40;;;14.60;99.90;;;;;;5119682;28;20913;-90
2022/05/30 01:48:14;;;;;;;2.73;2.40;;;14.60;99.90;;;;;;5113626;28;20467;-93
2022/05/30 01:50:40;;;;;;;2.60;1.93;;;14.60;99.90;;;;;;5122333;28;20172;-94
2022/05/30 01:53:06;;;;;;;4.03;2.53;;;14.60;99.90;;;;;;5116354;28;20483;-90
2022/05/30 01:55:32;;;;;;;6.53;1.67;;;14.60;99.90;;;;;;5099690;28;20269;-92
2022/05/30 01:57:58;;;;;;;3.50;2.30;;;14.60;99.90;;;;;;5116352;28;20431;-95
2022/05/30 02:00:24;;;;;;;2.17;1.97;;;14.50;99.90;;;;;;5098754;28;20416;-89
2022/05/30 02:02:49;;;;;;;3.23;2.47;;;14.50;99.90;;;;;;5116796;28;20188;-94
2022/05/30 02:05:15;;;;;;;2.40;2.20;;;14.50;99.90;;;;;;5099277;28;20214;-93
2022/05/30 02:07:42;;;;;;;1.93;1.80;;;14.50;99.90;;;;;;5098509;28;20431;-94
2022/05/30 02:10:08;;;;;;;2.30;2.10;;;14.50;99.90;;;;;;5116883;28;20176;-88
2022/05/30 02:12:34;;;;;;;4.80;2.20;;;14.50;99.90;;;;;;5116155;28;20846;-88
2022/05/30 02:14:59;;;;;;;2.47;2.27;;;14.50;99.90;;;;;;5099360;28;20419;-91
2022/05/30 02:17:25;;;;;;;2.10;1.90;;;14.50;99.90;;;;;;5099769;28;20322;-90
2022/05/30 02:19:51;;;;;;;2.53;2.33;;;14.50;99.90;;;;;;5099750;28;20432;-93
2022/05/30 02:22:20;;;;;;;2.87;2.37;;;14.50;99.90;;;;;;5099326;28;20428;-94
2022/05/30 02:24:48;;;;;;;2.57;2.20;;;14.40;99.90;;;;;;5099387;28;20180;-93
2022/05/30 02:27:16;;;;;;;2.37;2.17;;;14.50;99.90;;;;;;5100707;28;21318;-89
2022/05/30 02:29:42;;;;;;;2.67;2.33;;;14.50;99.90;;;;;;5100878;28;20581;-94
2022/05/30 02:32:09;;;;;;;6.97;2.60;;;14.50;99.90;;;;;;5099517;28;20813;-92
2022/05/30 02:37:19;;;;;;;2.33;2.00;;;14.40;99.90;;;;;;5117885;28;20462;-93
2022/05/30 02:39:44;;;;;;;2.63;2.43;;;14.50;99.90;;;;;;5119372;28;20408;-89
2022/05/30 02:42:10;;;;;;;4.20;2.27;;;14.50;99.90;;;;;;5118882;28;20195;-94
2022/05/30 02:44:37;;;;;;;6.50;2.30;;;14.40;99.90;;;;;;5100185;28;20180;-89
2022/05/30 02:47:03;;;;;;;4.30;2.50;;;14.40;99.90;;;;;;5100385;28;20464;-89
2022/05/30 02:49:29;;;;;;;2.30;2.10;;;14.40;99.90;;;;;;5120713;28;20443;-90
2022/05/30 02:51:56;;;;;;;3.53;2.00;;;14.40;99.90;;;;;;5100941;28;20470;-89
2022/05/30 02:54:22;;;;;;;3.10;2.20;;;14.30;99.90;;;;;;5100670;28;20464;-93
2022/05/30 02:56:53;;;;;;;2.10;1.93;;;14.30;99.90;;;;;;5105339;28;20456;-89
2022/05/30 02:59:19;;;;;;;2.50;2.30;;;14.30;99.90;;;;;;5099894;28;20420;-89
2022/05/30 03:01:45;;;;;;;2.70;2.43;;;14.30;99.90;;;;;;5115231;28;20447;-89
2022/05/30 03:04:11;;;;;;;2.53;2.10;;;14.30;99.90;;;;;;5097717;28;20424;-93
2022/05/30 03:06:38;;;;;;;5.80;2.73;;;14.30;99.90;;;;;;5097496;28;20227;-94
2022/05/30 03:09:05;;;;;;;2.83;2.63;;;14.30;99.90;;;;;;5116218;28;20959;-89
2022/05/30 03:11:31;;;;;;;1.97;1.87;;;14.30;99.90;;;;;;5098168;28;20450;-89
2022/05/30 03:13:57;;;;;;;4.33;1.90;;;14.30;99.90;;;;;;5114468;28;20790;-89
2022/05/30 03:16:23;;;;;;;4.30;3.23;;;14.30;99.90;;;;;;5097363;28;20416;-94
2022/05/30 03:18:48;;;;;;;2.60;2.40;;;14.20;99.90;;;;;;5097475;28;20693;-95
2022/05/30 03:21:14;;;;;;;3.37;3.00;;;14.20;99.90;;;;;;5097352;28;20507;-92
2022/05/30 03:23:40;;;;;;;2.57;2.37;;;14.20;99.90;;;;;;5116675;28;20203;-94
2022/05/30 03:26:07;;;;;;;5.20;2.47;;;14.20;99.90;;;;;;5115474;28;20219;-91
2022/05/30 03:28:34;;;;;;;3.50;2.40;;;14.10;99.90;;;;;;5115388;28;20423;-91
2022/05/30 03:31:01;;;;;;;2.70;2.07;;;14.10;99.90;;;;;;5115545;28;20401;-91
2022/05/30 03:33:28;;;;;;;2.83;2.40;;;14.10;99.90;;;;;;5098598;28;20471;-96
2022/05/30 03:35:54;;;;;;;2.97;2.40;;;14.10;99.90;;;;;;5097960;28;20412;-91
2022/05/30 03:38:20;;;;;;;2.90;2.67;;;14.10;99.90;;;;;;5115880;28;20428;-92
2022/05/30 03:40:46;;;;;;;2.43;2.20;;;14.10;99.90;;;;;;5116530;28;20405;-91
2022/05/30 03:43:12;;;;;;;5.40;3.00;;;14.10;99.90;;;;;;5115727;28;20502;-96
2022/05/30 03:45:42;;;;;;;5.03;2.80;;;14.10;99.90;;;;;;5116327;28;20566;-90
2022/05/30 03:48:10;;;;;;;3.80;2.43;;;14.10;99.90;;;;;;5115912;28;20429;-96
2022/05/30 03:50:38;;;;;;;8.40;4.80;;;14.10;99.90;;;;;;5115162;28;20449;-91
2022/05/30 03:53:07;;;;;;;11.33;6.20;;;14.10;99.90;;;;;;5101294;28;21056;-96
2022/05/30 03:55:36;;;;;;;7.63;2.70;;;14.10;99.90;;;;;;5118048;28;20404;-96
2022/05/30 03:58:06;;;;;;;3.03;2.70;;;14.00;99.90;;;;;;5098951;28;20431;-92
2022/05/30 04:00:33;;;;;;;4.00;2.93;;;14.00;99.90;;;;;;5116235;28;20420;-91
2022/05/30 04:03:00;;;;;;;4.77;2.70;;;14.10;99.90;;;;;;5097654;28;20465;-96
2022/05/30 04:05:27;;;;;;;5.30;2.93;;;14.00;99.90;;;;;;5114474;28;20405;-91
2022/05/30 04:07:53;;;;;;;2.53;2.33;;;14.00;99.90;;;;;;5097725;28;20880;-92
2022/05/30 04:10:20;;;;;;;2.80;2.50;;;14.00;99.90;;;;;;5099332;28;20408;-93
2022/05/30 04:12:46;;;;;;;5.67;3.90;;;14.00;99.90;;;;;;5098968;28;20520;-92
2022/05/30 04:15:18;;;;;;;3.53;2.77;;;14.00;99.90;;;;;;5117117;28;20498;-91
2022/05/30 04:17:45;;;;;;;4.20;3.33;;;14.00;99.90;;;;;;5115215;28;20234;-91
2022/05/30 04:20:11;;;;;;;3.07;2.77;;;14.00;99.90;;;;;;5095652;28;20956;-95
2022/05/30 04:22:36;;;;;;;3.97;2.90;;;14.10;99.90;;;;;;5095776;28;20428;-91
2022/05/30 04:25:03;;;;;;;4.33;3.47;;;14.10;99.90;;;;;;5114333;28;20427;-91
2022/05/30 04:27:29;;;;;;;5.07;3.13;;;14.10;99.90;;;;;;5119956;28;20257;-91
2022/05/30 04:29:54;;;;;;;5.33;3.83;;;14.10;99.90;;;;;;5127817;27;20412;-95
2022/05/30 04:32:22;;;;;;;4.53;3.03;;;14.10;99.90;;;;;;5121569;28;20466;-96
2022/05/30 04:34:48;;;;;;;4.17;3.40;;;14.20;99.90;;;;;;5109310;27;20636;-91
2022/05/30 04:37:14;;;;;;;3.43;3.13;;;14.20;99.90;;;;;;5104259;27;20576;-92
2022/05/30 04:39:40;;;;;;;4.30;3.20;;;14.20;99.90;;;;;;5118143;28;20995;-94
2022/05/30 04:42:06;;;;;;;4.27;2.83;;;14.30;99.90;;;;;;5112601;28;20190;-91
2022/05/30 04:44:32;;;;;;;6.43;3.00;;;14.30;99.90;;;;;;5114847;27;20438;-96
2022/05/30 04:46:58;;;;;;;3.80;3.00;;;14.40;99.90;;;;;;5122332;27;20966;-94
2022/05/30 04:49:25;;;;;;;3.37;2.77;;;14.40;99.90;;;;;;5131687;27;20412;-96
2022/05/30 04:51:51;;;;;;;3.93;3.20;;;14.50;99.90;;;;;;5101286;28;20830;-96
2022/05/30 04:54:19;;;;;;;6.67;3.70;;;14.50;99.90;;;;;;5117772;27;20454;-96
2022/05/30 04:56:45;;;;;;;3.93;3.27;;;14.60;99.90;;;;;;5119105;27;20542;-91
2022/05/30 04:59:11;;;;;;;2.90;2.70;;;14.60;99.90;;;;;;5110336;27;20451;-91
2022/05/30 05:01:37;;;;;;;3.60;2.97;;;14.70;99.90;;;;;;5102609;28;20491;-96
2022/05/30 05:04:10;;;;;;;3.40;2.73;;;14.70;99.90;;;;;;5120129;28;20412;-96
2022/05/30 05:06:37;;;;;;;4.67;3.30;;;14.80;99.90;;;;;;5112232;28;20578;-96
2022/05/30 05:09:12;;;;;;;3.80;3.50;;;14.80;99.90;;;;;;5106845;28;20424;-96
2022/05/30 05:11:38;;;;;;;3.17;2.90;;;14.90;99.90;;;;;;5100271;28;20439;-92
2022/05/30 05:14:03;;;;;;;2.60;2.40;;;14.90;99.90;;;;;;5104966;27;20558;-96
2022/05/30 05:16:30;;;;;;;2.80;2.50;;;14.90;99.90;;;;;;5113870;27;20526;-96
2022/05/30 05:18:57;;;;;;;2.90;2.70;;;15.00;99.90;;;;;;5140377;27;20211;-91
2022/05/30 05:21:28;;;;;;;5.13;2.30;;;15.00;99.90;;;;;;5114889;28;20416;-96
2022/05/30 05:23:55;;;;;;;4.13;3.30;;;15.00;99.90;;;;;;5136061;27;20513;-92
2022/05/30 05:26:24;;;;;;;4.90;4.03;;;15.00;99.90;;;;;;5137766;27;20420;-92
2022/05/30 05:28:50;;;;;;;3.83;3.50;;;15.10;99.90;;;;;;5119766;27;20408;-96
2022/05/30 05:31:32;;;;;;;5.90;3.00;;;15.10;99.90;;;;;;5140547;27;20407;-92
2022/05/30 05:33:59;;;;;;;4.20;3.80;;;15.10;99.90;;;;;;5121078;27;20511;-91
2022/05/30 05:36:30;;;;;;;5.73;3.57;;;15.10;99.90;;;;;;5122936;27;20424;-92
2022/05/30 05:38:56;;;;;;;7.77;5.03;;;15.10;99.90;;;;;;5115242;27;20415;-91
2022/05/30 05:41:25;;;;;;;4.40;4.00;;;15.00;99.90;;;;;;5110382;27;20436;-96
2022/05/30 05:43:54;;;;;;;3.63;3.33;;;15.00;99.90;;;;;;5109821;27;20188;-96
2022/05/30 05:46:26;;;;;;;4.57;3.00;;;15.00;99.90;;;;;;5127061;27;20487;-91
2022/05/30 05:48:53;;;;;;;11.60;3.80;;;15.00;99.90;;;;;;5099593;27;20416;-90
2022/05/30 05:51:20;;;;;;;9.30;4.33;;;15.00;99.90;;;;;;5116099;28;20436;-95
2022/05/30 05:53:47;;;;;;;6.57;3.70;;;15.00;99.90;;;;;;5107226;28;20468;-93
2022/05/30 05:56:16;;;;;;;4.30;3.00;;;15.00;99.90;;;;;;5111924;27;20456;-96
2022/05/30 05:58:42;;;;;;;4.93;3.50;;;15.00;99.90;;;;;;5111911;28;20428;-94
2022/05/30 06:01:26;;;;;;;6.30;2.83;;;15.00;99.90;;;;;;5130706;27;20450;-89
2022/05/30 06:03:57;;;;;;;3.87;3.40;;;15.10;99.90;;;;;;5107303;28;20420;-95
2022/05/30 06:06:26;;;;;;;5.23;3.20;;;15.10;99.90;;;;;;5096474;28;20514;-90
2022/05/30 06:08:53;;;;;;;5.00;3.03;;;15.10;99.90;;;;;;5121431;27;20933;-92
2022/05/30 06:11:21;;;;;;;13.60;7.77;;;15.20;99.90;;;;;;5055972;27;20435;-94
2022/05/30 06:13:48;;;;;;;4.10;3.47;;;15.20;99.90;;;;;;5135994;27;20516;-94
2022/05/30 06:16:21;;;;;;;2.83;2.47;;;15.20;99.90;;;;;;5098225;28;20987;-95
2022/05/30 06:18:48;;;;;;;3.40;3.10;;;15.20;99.90;;;;;;5017829;28;20463;-94
2022/05/30 06:21:15;;;;;;;3.07;2.70;;;15.20;99.90;;;;;;5009492;28;20416;-90
2022/05/30 06:23:44;;;;;;;3.13;2.83;;;15.30;99.90;;;;;;5004498;28;20800;-93
2022/05/30 06:26:10;;;;;;;3.67;2.90;;;15.30;99.90;;;;;;5011799;28;20772;-89
2022/05/30 06:28:37;;;;;;;5.93;3.30;;;15.30;99.90;;;;;;5013757;28;20460;-89
2022/05/30 06:31:14;;;;;;;4.67;3.10;;;15.30;99.90;;;;;;5006920;28;20448;-89
2022/05/30 06:33:40;;;;;;;5.37;3.20;;;15.30;99.90;;;;;;5010003;28;20484;-94
2022/05/30 06:36:08;;;;;;;4.17;2.90;;;15.40;99.90;;;;;;5011943;28;20504;-93
2022/05/30 06:38:35;;;;;;;5.03;2.70;;;15.40;99.90;;;;;;5008326;28;20484;-94
2022/05/30 06:41:22;;;;;;;4.80;2.47;;;15.50;99.90;;;;;;5023789;28;20442;-93
2022/05/30 06:43:50;;;;;;;10.10;3.33;;;15.50;99.90;;;;;;5024009;28;20436;-91
2022/05/30 06:46:17;;;;;;;6.20;3.13;;;15.50;99.90;;;;;;5014255;28;20420;-94
2022/05/30 06:48:43;;;;;;;2.80;2.47;;;15.60;99.90;;;;;;5014972;28;20422;-91
2022/05/30 06:51:15;;;;;;;4.00;3.13;;;15.60;99.90;;;;;;5013137;28;20439;-90
2022/05/30 06:53:40;;;;;;;4.90;3.40;;;15.60;99.90;;;;;;5037187;28;20535;-91
2022/05/30 06:56:18;;;;;;;3.13;2.83;;;15.70;99.90;;;;;;5033373;28;20542;-90
2022/05/30 06:58:46;;;;;;;4.20;3.00;;;15.70;99.90;;;;;;5023928;28;20183;-94
2022/05/30 07:01:12;;;;;;;13.87;3.87;;;15.80;99.90;;;;;;5015670;28;20505;-94
2022/05/30 07:03:39;;;;;;;4.27;3.03;;;15.80;99.90;;;;;;5009346;28;20471;-94
2022/05/30 07:06:07;;;;;;;3.00;2.80;;;15.80;99.90;;;;;;5031659;28;20443;-92
2022/05/30 07:08:33;;;;;;;6.07;3.53;;;15.90;99.90;;;;;;5013400;28;20448;-94
2022/05/30 07:11:01;;;;;;;3.70;3.40;;;15.90;99.90;;;;;;5007797;28;20424;-93
2022/05/30 07:13:27;;;;;;;3.50;3.17;;;16.00;99.90;;;;;;5036816;28;20486;-91
2022/05/30 07:15:53;;;;;;;3.33;3.03;;;16.00;99.90;;;;;;5005132;28;20777;-93
2022/05/30 07:18:19;;;;;;;3.70;3.13;;;16.00;99.90;;;;;;5086305;28;20503;-94
2022/05/30 07:20:46;;;;;;;3.43;2.90;;;16.10;99.90;;;;;;5093282;28;20494;-91
2022/05/30 07:23:13;;;;;;;2.80;2.60;;;16.10;99.90;;;;;;5101352;27;20455;-91
2022/05/30 07:25:40;;;;;;;3.30;3.00;;;16.10;99.90;;;;;;5118055;27;20496;-91
2022/05/30 07:28:06;;;;;;;3.70;2.87;;;16.10;99.90;;;;;;5106578;28;20452;-90
2022/05/30 07:30:35;;;;;;;3.63;3.33;;;16.10;99.90;;;;;;5103002;27;20882;-90
2022/05/30 07:33:01;;;;;;;3.90;3.00;;;16.10;99.90;;;;;;5110871;28;20905;-94
2022/05/30 07:35:27;;;;;;;3.17;2.97;;;16.10;99.90;;;;;;5109693;28;20955;-94
2022/05/30 07:37:53;;;;;;;3.67;3.37;;;16.10;99.90;;;;;;5109450;28;20448;-90
2022/05/30 07:40:19;;;;;;;4.83;3.30;;;16.10;99.90;;;;;;5103622;28;20691;-92
2022/05/30 07:42:45;;;;;;;3.37;3.07;;;16.20;99.90;;;;;;5112982;28;20191;-90
2022/05/30 07:45:11;;;;;;;3.40;2.93;;;16.20;99.90;;;;;;5111443;28;20454;-95
2022/05/30 07:47:38;;;;;;;3.73;3.43;;;16.20;99.90;;;;;;5127461;28;20449;-91
2022/05/30 07:50:05;;;;;;;3.93;3.63;;;16.30;99.90;;;;;;5107760;28;20469;-91
2022/05/30 07:52:31;;;;;;;4.60;2.70;;;16.40;99.90;;;;;;5107712;28;20466;-94
2022/05/30 07:54:57;;;;;;;3.43;3.03;;;16.50;99.90;;;;;;5106446;28;20561;-91
2022/05/30 08:00:10;;;;;;;4.67;3.40;;;16.60;99.90;;;;;;5134589;28;20426;-91
2022/05/30 08:02:38;;;;;;;2.80;2.60;;;16.70;99.90;;;;;;5107794;28;21034;-91
2022/05/30 08:05:05;;;;;;;3.60;3.30;;;16.70;99.90;;;;;;5099131;28;20439;-91
2022/05/30 08:07:31;;;;;;;3.80;3.13;;;16.80;99.90;;;;;;5114710;27;20448;-91
2022/05/30 08:09:57;;;;;;;3.83;3.20;;;16.90;99.90;;;;;;5113501;27;20787;-92
2022/05/30 08:12:23;;;;;;;6.60;3.20;;;17.00;99.90;;;;;;5123584;27;20220;-92
2022/05/30 08:14:48;;;;;;;3.77;3.47;;;17.00;99.90;;;;;;5128418;27;20178;-91
2022/05/30 08:17:14;;;;;;;4.00;3.10;;;17.00;99.90;;;;;;5131610;27;20987;-95
2022/05/30 08:19:40;;;;;;;3.93;2.77;;;17.10;99.90;;;;;;5112365;28;20648;-92
2022/05/30 08:22:13;;;;;;;3.37;2.63;;;17.10;99.90;;;;;;5110065;27;20202;-96
2022/05/30 08:24:42;;;;;;;3.40;2.97;;;17.10;99.90;;;;;;5122288;27;20451;-94
2022/05/30 08:27:08;;;;;;;3.60;2.93;;;17.10;99.90;;;;;;5112421;27;20438;-95
2022/05/30 08:29:35;;;;;;;3.10;2.57;;;17.20;99.90;;;;;;5120377;27;20426;-95
2022/05/30 08:32:02;;;;;;;4.53;3.93;;;17.20;99.90;;;;;;5119368;27;20984;-96
2022/05/30 08:34:27;;;;;;;131.63;58.83;;;17.20;99.90;;;;;;5125915;27;20935;-95
2022/05/30 08:36:53;;;;;;;52.20;28.53;;;17.20;99.90;;;;;;5114102;27;20451;-91
2022/05/30 08:42:04;;;;;;;3.73;2.27;;;17.20;99.90;;;;;;5134426;27;20468;-95
2022/05/30 08:44:31;;;;;;;3.10;2.80;;;17.30;99.90;;;;;;5131408;27;20540;-94
2022/05/30 08:47:01;;;;;;;3.03;2.40;;;17.30;99.90;;;;;;5107337;27;20708;-92
2022/05/30 08:49:33;;;;;;;3.07;2.73;;;17.30;99.90;;;;;;5106824;27;20476;-92
2022/05/30 08:52:21;;;;;;;3.03;2.73;;;17.30;99.90;;;;;;5113875;27;20500;-94
2022/05/30 08:55:08;;;;;;;3.00;2.70;;;17.30;99.90;;;;;;5105489;27;20435;-91
2022/05/30 08:57:42;;;;;;;4.17;3.17;;;17.30;99.90;;;;;;5112114;27;20446;-91
2022/05/30 09:00:45;;;;;;;3.17;2.90;;;17.30;99.90;;;;;;5110758;27;20472;-91
2022/05/30 09:03:38;;;;;;;3.13;2.63;;;17.30;99.90;;;;;;5087356;27;20452;-91
2022/05/30 09:06:15;;;;;;;3.40;2.80;;;17.30;99.90;;;;;;5127987;27;20431;-91
2022/05/30 09:08:48;;;;;;;4.40;2.77;;;17.30;99.90;;;;;;5107822;27;20422;-94
2022/05/30 09:11:25;;;;;;;2.90;2.60;;;17.30;99.90;;;;;;5117895;27;20442;-94
2022/05/30 09:13:53;;;;;;;2.83;2.53;;;17.30;99.90;;;;;;5114313;27;20545;-94
2022/05/30 09:16:37;;;;;;;3.57;2.30;;;17.30;99.90;;;;;;5108794;27;20995;-94
2022/05/30 09:19:07;;;;;;;3.20;2.70;;;17.30;99.90;;;;;;5132884;27;20434;-94
2022/05/30 09:21:33;;;;;;;3.00;2.80;;;17.30;99.90;;;;;;5118570;27;20462;-93
2022/05/30 09:24:00;;;;;;;3.17;2.40;;;17.30;99.90;;;;;;5119659;27;21024;-93
2022/05/30 09:26:40;;;;;;;3.07;2.60;;;17.30;99.90;;;;;;5115272;27;20954;-91
2022/05/30 09:29:19;;;;;;;3.17;2.73;;;17.30;99.90;;;;;;5115060;27;20466;-90
2022/05/30 09:31:59;;;;;;;3.87;3.17;;;17.30;99.90;;;;;;5124785;27;20450;-90
2022/05/30 09:34:46;;;;;;;3.57;3.27;;;17.40;99.90;;;;;;5106398;27;20439;-91
2022/05/30 09:37:31;;;;;;;2.70;2.43;;;17.40;99.90;;;;;;5103245;27;20463;-91
2022/05/30 09:39:58;;;;;;;4.53;3.00;;;17.40;99.90;;;;;;5117715;27;20521;-91
2022/05/30 09:42:24;;;;;;;3.03;2.83;;;17.50;99.90;;;;;;5116578;27;20596;-91
2022/05/30 09:44:56;;;;;;;3.13;2.83;;;17.50;99.90;;;;;;5110524;27;20534;-89
2022/05/30 09:47:23;;;;;;;6.60;3.27;;;17.50;99.90;;;;;;5121232;27;20210;-91
2022/05/30 09:49:53;;;;;;;4.00;3.00;;;17.50;99.90;;;;;;5106355;28;20508;-91
2022/05/30 09:52:28;;;;;;;3.30;3.00;;;17.50;99.90;;;;;;5107263;27;20510;-91
2022/05/30 09:54:55;;;;;;;3.73;2.80;;;17.50;99.90;;;;;;5124459;27;20438;-92
2022/05/30 09:57:35;;;;;;;3.43;2.80;;;17.40;99.90;;;;;;5131482;27;20479;-93
2022/05/30 10:00:10;;;;;;;3.20;2.23;;;17.40;99.90;;;;;;5124209;27;20435;-95
2022/05/30 10:02:38;;;;;;;7.53;2.90;;;17.40;99.90;;;;;;5125664;27;20460;-92
2022/05/30 10:05:21;;;;;;;3.23;2.70;;;17.30;99.90;;;;;;5102243;28;20484;-91
2022/05/30 10:07:53;;;;;;;6.20;3.33;;;17.30;99.90;;;;;;5106029;27;20519;-92
2022/05/30 10:10:25;;;;;;;3.20;2.90;;;17.30;99.90;;;;;;5130331;27;20501;-92
2022/05/30 10:12:59;;;;;;;3.60;3.20;;;17.30;99.90;;;;;;5111376;27;20479;-95
2022/05/30 10:15:38;;;;;;;372.97;201.03;;;17.30;99.90;;;;;;5122593;27;20436;-95
2022/05/30 10:18:13;;;;;;;765.27;374.13;;;17.20;99.90;;;;;;5109044;27;20475;-93
2022/05/30 10:21:23;;;;;;;33.53;19.83;;;17.20;99.90;;;;;;5114154;27;20521;-91
2022/05/30 10:30:15;;;;;;;5.07;3.27;;;17.20;99.90;;;;;;5119239;27;20426;-92
2022/05/30 10:33:03;;;;;;;4.43;3.17;;;17.20;99.90;;;;;;5115236;27;20467;-95
2022/05/30 10:35:55;;;;;;;6.90;3.50;;;17.20;99.90;;;;;;5128592;27;20422;-95
2022/05/30 10:38:45;;;;;;;3.67;3.00;;;17.20;99.90;;;;;;5091869;27;20486;-95
2022/05/30 10:41:29;;;;;;;3.40;2.70;;;17.20;99.90;;;;;;5117352;27;20787;-92
2022/05/30 10:44:17;;;;;;;3.23;2.90;;;17.30;99.90;;;;;;5108004;27;20414;-92
2022/05/30 10:46:52;;;;;;;3.47;2.63;;;17.30;99.90;;;;;;5113406;27;20465;-92
2022/05/30 10:49:24;;;;;;;3.77;2.97;;;17.40;99.90;;;;;;5104043;27;20983;-95
2022/05/30 10:52:02;;;;;;;2.53;2.33;;;17.30;99.90;;;;;;5110686;27;20810;-96
2022/05/30 10:54:34;;;;;;;4.50;3.20;;;17.40;99.90;;;;;;5108466;27;20490;-92
2022/05/30 10:57:23;;;;;;;5.67;3.87;;;17.40;99.90;;;;;;5110445;27;20450;-93
2022/05/30 10:59:57;;;;;;;2.73;2.30;;;17.50;99.90;;;;;;5097989;27;20401;-93
2022/05/30 11:02:46;;;;;;;3.53;2.90;;;17.50;99.90;;;;;;5131895;27;20443;-94
2022/05/30 11:05:30;;;;;;;5.10;3.30;;;17.50;99.90;;;;;;5125157;27;20408;-95
2022/05/30 11:08:14;;;;;;;3.40;3.10;;;17.60;99.90;;;;;;5106342;28;20533;-96
2022/05/30 11:10:58;;;;;;;4.87;4.33;;;17.60;99.90;;;;;;5115875;27;20435;-92
2022/05/30 11:13:59;;;;;;;4.07;3.17;;;17.60;99.90;;;;;;5106331;27;20471;-96
2022/05/30 11:16:40;;;;;;;3.53;2.40;;;17.70;99.90;;;;;;5109804;27;20446;-93
2022/05/30 11:19:18;;;;;;;2.57;2.37;;;17.70;99.90;;;;;;5103740;27;20546;-92
2022/05/30 11:21:56;;;;;;;4.50;2.90;;;17.80;99.90;;;;;;5131604;27;20462;-95
2022/05/30 11:24:21;;;;;;;3.37;2.60;;;17.80;99.90;;;;;;5130775;27;20448;-92
2022/05/30 11:26:56;;;;;;;3.30;2.80;;;17.80;99.90;;;;;;5105446;28;20443;-96
2022/05/30 11:29:46;;;;;;;3.60;2.60;;;17.90;99.90;;;;;;5098152;28;20166;-92
2022/05/30 11:32:54;;;;;;;4.10;3.40;;;17.90;99.90;;;;;;5116039;27;20891;-93
2022/05/30 11:35:32;;;;;;;3.97;3.37;;;17.90;99.90;;;;;;5108490;27;20513;-92
2022/05/30 11:38:19;;;;;;;4.13;3.10;;;17.80;99.90;;;;;;5095832;28;20471;-95
2022/05/30 11:40:48;;;;;;;3.80;3.47;;;17.80;99.90;;;;;;5111241;28;20431;-96
2022/05/30 11:43:39;;;;;;;3.07;2.77;;;17.80;99.90;;;;;;5115095;28;20459;-95
2022/05/30 11:46:32;;;;;;;5.40;4.57;;;17.90;99.90;;;;;;5134653;28;20450;-95
2022/05/30 11:49:14;;;;;;;5.33;2.37;;;17.90;99.90;;;;;;5112950;28;20423;-92
2022/05/30 11:52:17;;;;;;;2.20;2.00;;;17.90;99.90;;;;;;5116834;28;20451;-95
2022/05/30 11:55:14;;;;;;;3.87;2.60;;;17.90;99.90;;;;;;5113488;28;20431;-95
2022/05/30 11:58:21;;;;;;;2.33;2.10;;;18.00;99.90;;;;;;5108650;28;20451;-92
2022/05/30 12:00:51;;;;;;;3.40;2.30;;;18.00;99.90;;;;;;5099909;28;20443;-92
2022/05/30 12:03:54;;;;;;;5.77;4.03;;;18.00;99.90;;;;;;5104438;28;20490;-92
2022/05/30 12:06:59;;;;;;;3.17;2.60;;;18.10;99.90;;;;;;5114785;28;20439;-94
2022/05/30 12:09:52;;;;;;;7.67;3.60;;;18.10;99.90;;;;;;5124435;28;20435;-91
2022/05/30 12:12:38;;;;;;;4.17;2.57;;;18.10;99.90;;;;;;5103992;28;20511;-90
2022/05/30 12:15:30;;;;;;;3.50;2.40;;;18.10;99.90;;;;;;5122988;28;20436;-90
2022/05/30 12:24:12;;;;;;;3.10;2.80;;;18.10;99.90;;;;;;5122920;28;20512;-93
2022/05/30 12:26:53;;;;;;;5.47;2.90;;;18.20;99.90;;;;;;5118901;28;20550;-91
2022/05/30 12:29:42;;;;;;;5.20;3.23;;;18.20;99.90;;;;;;5099397;28;20431;-91
2022/05/30 12:32:45;;;;;;;6.30;3.50;;;18.20;99.90;;;;;;5091275;28;20789;-91
2022/05/30 12:35:26;;;;;;;4.83;2.90;;;18.30;99.90;;;;;;5129899;28;20435;-91
2022/05/30 12:38:07;;;;;;;3.27;2.53;;;18.30;99.90;;;;;;5111867;28;20455;-94
2022/05/30 12:40:40;;;;;;;3.90;3.20;;;18.30;99.90;;;;;;5104620;28;20439;-93
2022/05/30 12:43:09;;;;;;;3.30;2.63;;;18.30;99.90;;;;;;5118652;28;20460;-91
2022/05/30 12:45:40;;;;;;;3.67;3.20;;;18.30;99.90;;;;;;5101286;28;20450;-94
2022/05/30 12:48:14;;;;;;;3.73;3.00;;;18.40;99.90;;;;;;5121148;28;20487;-91
2022/05/30 12:50:50;;;;;;;2.77;2.57;;;18.40;99.90;;;;;;5106649;27;20447;-90
2022/05/30 12:53:16;;;;;;;3.33;2.30;;;18.40;99.90;;;;;;5114251;27;20489;-95
2022/05/30 12:55:48;;;;;;;6.83;3.07;;;18.40;99.90;;;;;;5121530;27;20431;-91
2022/05/30 12:58:19;;;;;;;6.93;2.97;;;18.50;99.90;;;;;;5136037;27;20435;-91
2022/05/30 13:00:50;;;;;;;3.93;2.60;;;18.50;99.90;;;;;;5138140;27;20429;-91
2022/05/30 13:03:24;;;;;;;2.80;2.40;;;18.50;99.90;;;;;;5117201;27;20859;-92
2022/05/30 13:06:02;;;;;;;5.63;3.87;;;18.60;99.90;;;;;;5113087;27;20430;-92
2022/05/30 13:08:59;;;;;;;3.80;2.80;;;18.60;99.90;;;;;;5135672;27;20439;-92
2022/05/30 13:11:34;;;;;;;5.90;3.47;;;18.60;99.90;;;;;;5108045;27;20419;-92
2022/05/30 13:14:30;;;;;;;3.30;2.37;;;18.60;99.90;;;;;;5121419;27;20545;-93
2022/05/30 13:17:09;;;;;;;3.20;2.60;;;18.70;99.90;;;;;;5112433;28;20472;-95
2022/05/30 13:19:45;;;;;;;6.33;2.83;;;18.70;99.90;;;;;;5119433;27;20419;-95
2022/05/30 13:22:12;;;;;;;5.13;2.90;;;18.70;99.90;;;;;;5137674;27;20450;-95
2022/05/30 13:24:39;;;;;;;3.50;2.53;;;18.70;99.90;;;;;;5122514;27;20799;-94
2022/05/30 13:27:05;;;;;;;3.90;2.60;;;18.70;99.90;;;;;;5143178;27;20561;-92
2022/05/30 13:29:38;;;;;;;3.10;2.67;;;18.70;99.90;;;;;;5118604;27;21029;-92
2022/05/30 13:32:18;;;;;;;3.37;2.80;;;18.70;99.90;;;;;;5132008;27;20463;-96